createdAt,value
2019-04-16T00:02:21.577Z,72.20
2019-04-16T00:04:57.656Z,72.20
2019-04-16T00:07:30.834Z,71.60
2019-04-16T00:10:16.095Z,71.40
2019-04-16T00:13:02.585Z,71.30
2019-04-16T00:15:31.029Z,71.20
2019-04-16T00:17:59.892Z,71.60
2019-04-16T00:20:28.428Z,72.10
2019-04-16T00:22:58.510Z,72.50
2019-04-16T00:25:26.949Z,72.30
2019-04-16T00:27:59.511Z,72.60
2019-04-16T00:30:25.656Z,72.50
2019-04-16T00:32:54.101Z,73.00
2019-04-16T00:35:22.598Z,72.80
2019-04-16T00:37:51.774Z,72.90
2019-04-16T00:40:20.915Z,73.00
2019-04-16T00:42:49.380Z,72.90
2019-04-16T00:45:17.820Z,73.20
2019-04-16T00:47:47.916Z,73.40
2019-04-16T00:50:16.517Z,73.60
2019-04-16T00:52:44.951Z,73.80
2019-04-16T00:55:14.565Z,74.20
2019-04-16T00:57:43.318Z,74.80
2019-04-16T01:00:12.193Z,74.90
2019-04-16T01:02:40.638Z,75.00
2019-04-16T01:05:09.238Z,74.10
2019-04-16T01:07:37.676Z,74.20
2019-04-16T01:10:06.456Z,74.20
2019-04-16T01:12:34.933Z,74.20
2019-04-16T01:15:03.721Z,74.20
2019-04-16T01:17:33.419Z,74.50
2019-04-16T01:20:03.786Z,74.40
2019-04-16T01:22:32.231Z,74.20
2019-04-16T01:25:00.745Z,73.80
2019-04-16T01:27:36.956Z,73.80
2019-04-16T01:30:08.181Z,73.90
2019-04-16T01:32:44.165Z,74.50
2019-04-16T01:35:19.023Z,73.80
2019-04-16T01:37:48.811Z,74.40
2019-04-16T01:40:19.298Z,74.70
2019-04-16T01:42:47.813Z,75.50
2019-04-16T01:45:16.282Z,74.50
2019-04-16T01:47:44.717Z,74.50
2019-04-16T01:50:14.072Z,74.70
2019-04-16T01:52:41.961Z,74.20
2019-04-16T01:55:10.405Z,73.90
2019-04-16T01:57:38.841Z,73.90
2019-04-16T02:00:08.545Z,74.20
2019-04-16T02:02:37.421Z,74.00
2019-04-16T02:05:07.329Z,73.90
2019-04-16T02:07:35.810Z,73.80
2019-04-16T02:10:07.341Z,73.40
2019-04-16T02:12:35.863Z,73.80
2019-04-16T02:15:06.819Z,73.60
2019-04-16T02:17:35.257Z,74.10
2019-04-16T02:20:06.254Z,74.20
2019-04-16T02:22:35.512Z,75.00
2019-04-16T02:25:05.801Z,74.50
2019-04-16T02:27:34.307Z,74.60
2019-04-16T02:30:04.731Z,74.80
2019-04-16T02:32:32.962Z,74.60
2019-04-16T02:35:01.406Z,74.90
2019-04-16T02:37:35.448Z,75.10
2019-04-16T02:40:00.052Z,74.90
2019-04-16T02:42:31.940Z,75.00
2019-04-16T02:44:58.781Z,75.60
2019-04-16T02:47:27.233Z,76.00
2019-04-16T02:49:56.709Z,76.10
2019-04-16T02:52:36.634Z,76.00
2019-04-16T02:55:25.410Z,76.30
2019-04-16T02:58:14.001Z,76.20
2019-04-16T03:00:50.775Z,76.60
2019-04-16T03:03:26.702Z,77.10
2019-04-16T03:06:00.714Z,77.10
2019-04-16T03:08:27.121Z,77.40
2019-04-16T03:10:55.594Z,77.60
2019-04-16T03:13:24.095Z,77.60
2019-04-16T03:16:12.443Z,77.40
2019-04-16T03:18:46.826Z,77.50
2019-04-16T03:21:12.689Z,77.20
2019-04-16T03:23:41.366Z,76.90
2019-04-16T03:26:09.806Z,76.80
2019-04-16T03:28:38.254Z,76.70
2019-04-16T03:31:09.032Z,76.80
2019-04-16T03:33:37.015Z,77.10
2019-04-16T03:36:05.531Z,77.00
2019-04-16T03:38:36.760Z,77.70
2019-04-16T03:41:04.505Z,77.10
2019-04-16T03:43:33.198Z,77.10
2019-04-16T03:46:01.666Z,77.10
2019-04-16T03:48:30.101Z,77.50
2019-04-16T03:51:00.544Z,77.50
2019-04-16T03:53:28.729Z,77.50
2019-04-16T03:55:58.215Z,77.30
2019-04-16T03:58:27.405Z,77.70
2019-04-16T04:00:55.876Z,77.50
2019-04-16T04:03:26.168Z,77.20
2019-04-16T04:05:57.758Z,77.30
2019-04-16T04:08:26.426Z,77.40
2019-04-16T04:10:54.873Z,77.70
2019-04-16T04:13:23.397Z,77.40
2019-04-16T04:15:54.884Z,77.20
2019-04-16T04:18:22.052Z,76.80
2019-04-16T04:20:50.992Z,76.90
2019-04-16T04:23:19.724Z,76.60
2019-04-16T04:25:48.527Z,76.10
2019-04-16T04:28:19.686Z,76.00
2019-04-16T04:30:48.763Z,76.00
2019-04-16T04:33:40.682Z,75.40
2019-04-16T04:36:10.801Z,75.10
2019-04-16T04:38:39.683Z,74.50
2019-04-16T04:41:08.539Z,74.20
2019-04-16T04:43:37.149Z,74.00
2019-04-16T04:46:05.734Z,73.70
2019-04-16T04:48:34.242Z,73.60
2019-04-16T04:51:06.930Z,73.10
2019-04-16T04:53:33.050Z,72.80
2019-04-16T04:56:01.490Z,72.20
2019-04-16T04:58:33.781Z,72.10
2019-04-16T05:01:00.193Z,71.50
2019-04-16T05:03:47.439Z,71.20
2019-04-16T05:06:18.472Z,71.40
2019-04-16T05:08:46.911Z,70.90
2019-04-16T05:11:16.584Z,70.80
2019-04-16T05:13:45.525Z,70.60
2019-04-16T05:16:13.970Z,70.80
2019-04-16T05:18:42.706Z,69.60
2019-04-16T05:21:11.324Z,69.30
2019-04-16T05:23:59.150Z,68.80
2019-04-16T05:26:27.863Z,70.60
2019-04-16T05:28:57.957Z,69.30
2019-04-16T05:31:26.510Z,69.20
2019-04-16T05:33:54.949Z,68.10
2019-04-16T05:36:23.389Z,67.90
2019-04-16T05:38:55.538Z,67.30
2019-04-16T05:41:22.821Z,67.30
2019-04-16T05:44:11.016Z,67.10
2019-04-16T05:46:46.291Z,68.80
2019-04-16T05:49:11.677Z,66.70
2019-04-16T05:51:40.157Z,66.50
2019-04-16T05:54:12.230Z,66.30
2019-04-16T05:56:42.070Z,65.90
2019-04-16T05:59:33.510Z,65.20
2019-04-16T06:02:01.695Z,64.50
2019-04-16T06:04:30.328Z,63.90
2019-04-16T06:07:02.894Z,63.50
2019-04-16T06:09:29.017Z,63.10
2019-04-16T06:11:57.533Z,62.70
2019-04-16T06:14:30.225Z,62.70
2019-04-16T06:17:09.238Z,61.80
2019-04-16T06:19:48.646Z,61.50
2019-04-16T06:22:18.736Z,62.00
2019-04-16T06:24:51.790Z,61.10
2019-04-16T06:27:28.017Z,60.20
2019-04-16T06:30:14.814Z,59.40
2019-04-16T06:32:45.021Z,58.50
2019-04-16T06:35:17.718Z,58.30
2019-04-16T06:37:53.982Z,57.40
2019-04-16T06:40:39.147Z,56.00
2019-04-16T06:43:09.343Z,55.20
2019-04-16T06:45:39.481Z,53.60
2019-04-16T06:48:12.787Z,51.70
2019-04-16T06:50:59.690Z,52.30
2019-04-16T06:53:36.177Z,51.20
2019-04-16T06:56:08.697Z,51.50
2019-04-16T06:58:51.085Z,50.20
2019-04-16T07:01:27.730Z,50.20
2019-04-16T07:04:00.824Z,49.40
2019-04-16T07:06:35.992Z,48.70
2019-04-16T07:09:25.287Z,49.80
2019-04-16T07:11:54.601Z,47.10
2019-04-16T07:14:22.913Z,46.30
2019-04-16T07:16:51.441Z,46.30
2019-04-16T07:19:19.978Z,46.50
2019-04-16T07:21:49.820Z,45.20
2019-04-16T07:24:22.132Z,45.00
2019-04-16T07:26:48.864Z,43.60
2019-04-16T07:29:30.893Z,43.30
2019-04-16T07:32:09.682Z,43.20
2019-04-16T07:34:40.027Z,41.40
2019-04-16T07:37:21.872Z,42.40
2019-04-16T07:39:57.893Z,41.50
2019-04-16T07:42:30.946Z,41.70
2019-04-16T07:45:11.424Z,41.00
2019-04-16T07:47:57.435Z,40.80
2019-04-16T07:50:45.456Z,39.90
2019-04-16T07:53:21.178Z,41.50
2019-04-16T07:55:51.361Z,40.50
2019-04-16T07:58:19.834Z,40.80
2019-04-16T08:00:48.345Z,40.80
2019-04-16T08:03:16.849Z,39.90
2019-04-16T08:05:45.386Z,39.30
2019-04-16T08:08:13.897Z,40.00
2019-04-16T08:10:42.471Z,40.30
2019-04-16T08:13:15.093Z,39.40
2019-04-16T08:15:43.683Z,38.40
2019-04-16T08:18:12.480Z,38.50
2019-04-16T08:20:43.251Z,38.80
2019-04-16T08:23:25.621Z,39.60
2019-04-16T08:26:03.497Z,39.50
2019-04-16T08:28:29.210Z,38.30
2019-04-16T08:30:58.036Z,37.90
2019-04-16T08:33:28.538Z,37.50
2019-04-16T08:35:56.771Z,35.90
2019-04-16T08:38:26.195Z,35.50
2019-04-16T08:40:54.953Z,34.90
2019-04-16T08:43:23.587Z,34.90
2019-04-16T08:45:52.059Z,36.30
2019-04-16T08:48:20.526Z,34.70
2019-04-16T08:50:49.492Z,34.60
2019-04-16T08:53:18.122Z,34.70
2019-04-16T08:55:46.569Z,32.20
2019-04-16T08:58:15.016Z,32.10
2019-04-16T09:00:46.549Z,33.30
2019-04-16T09:03:15.617Z,33.00
2019-04-16T09:05:44.165Z,34.50
2019-04-16T09:08:14.355Z,33.90
2019-04-16T09:10:44.682Z,33.40
2019-04-16T09:13:29.678Z,32.50
2019-04-16T09:15:58.187Z,31.90
2019-04-16T09:18:28.285Z,31.30
2019-04-16T09:20:56.882Z,32.20
2019-04-16T09:23:26.942Z,32.00
2019-04-16T09:26:11.271Z,31.70
2019-04-16T09:28:31.066Z,32.00
2019-04-16T09:31:12.752Z,32.40
2019-04-16T09:33:43.383Z,30.10
2019-04-16T09:36:19.221Z,29.50
2019-04-16T09:38:55.358Z,29.60
2019-04-16T09:41:25.508Z,29.80
2019-04-16T09:43:58.458Z,29.90
2019-04-16T09:46:49.884Z,28.80
2019-04-16T09:48:57.285Z,29.40
2019-04-16T09:51:26.378Z,29.60
2019-04-16T09:53:55.442Z,28.40
2019-04-16T09:56:29.358Z,28.10
2019-04-16T09:59:01.583Z,28.10
2019-04-16T10:01:31.942Z,28.20
2019-04-16T10:04:00.417Z,28.20
2019-04-16T10:06:28.912Z,29.00
2019-04-16T10:08:57.402Z,29.70
2019-04-16T10:11:25.889Z,29.30
2019-04-16T10:13:54.463Z,29.30
2019-04-16T10:16:24.623Z,28.90
2019-04-16T10:18:53.080Z,28.40
2019-04-16T10:21:21.627Z,28.20
2019-04-16T10:23:51.781Z,28.40
2019-04-16T10:26:20.314Z,28.00
2019-04-16T10:28:48.859Z,26.90
2019-04-16T10:31:19.014Z,27.40
2019-04-16T10:33:47.508Z,27.50
2019-04-16T10:36:17.549Z,27.40
2019-04-16T10:38:50.454Z,27.60
2019-04-16T10:41:23.646Z,27.80
2019-04-16T10:43:56.650Z,27.50
2019-04-16T10:46:35.844Z,27.50
2019-04-16T10:49:08.956Z,27.00
2019-04-16T10:51:44.963Z,25.60
2019-04-16T10:54:21.089Z,26.60
2019-04-16T10:56:57.877Z,26.90
2019-04-16T10:59:38.593Z,26.20
2019-04-16T11:02:11.610Z,24.80
2019-04-16T11:04:53.707Z,25.30
2019-04-16T11:07:23.837Z,26.20
2019-04-16T11:09:52.428Z,25.90
2019-04-16T11:12:20.951Z,26.30
2019-04-16T11:14:49.528Z,26.00
2019-04-16T11:17:19.756Z,26.20
2019-04-16T11:19:52.740Z,25.10
2019-04-16T11:22:18.620Z,23.80
2019-04-16T11:24:47.124Z,23.40
2019-04-16T11:27:15.776Z,24.00
2019-04-16T11:29:44.257Z,26.10
2019-04-16T11:32:14.350Z,25.40
2019-04-16T11:34:42.879Z,24.90
2019-04-16T11:37:11.922Z,25.40
2019-04-16T11:39:40.429Z,25.10
2019-04-16T11:42:09.060Z,26.20
2019-04-16T11:44:37.597Z,26.60
2019-04-16T11:47:06.816Z,26.70
2019-04-16T11:49:35.297Z,26.30
2019-04-16T11:52:04.078Z,26.30
2019-04-16T11:54:32.578Z,25.60
2019-04-16T11:57:01.082Z,25.30
2019-04-16T11:59:29.770Z,26.30
2019-04-16T12:02:02.895Z,25.80
2019-04-16T12:04:33.183Z,24.50
2019-04-16T12:07:12.548Z,23.30
2019-04-16T12:09:47.985Z,23.50
2019-04-16T12:12:21.094Z,23.40
2019-04-16T12:15:06.234Z,21.70
2019-04-16T12:17:39.090Z,20.90
2019-04-16T12:20:25.986Z,20.90
2019-04-16T12:22:56.227Z,18.80
2019-04-16T12:25:29.954Z,20.40
2019-04-16T12:28:16.256Z,21.00
2019-04-16T12:30:49.132Z,20.20
2019-04-16T12:33:22.481Z,19.80
2019-04-16T12:36:12.814Z,19.40
2019-04-16T12:38:50.226Z,18.80
2019-04-16T12:41:23.080Z,18.20
2019-04-16T12:43:55.669Z,17.70
2019-04-16T12:46:34.533Z,16.60
2019-04-16T12:49:20.987Z,17.90
2019-04-16T12:51:54.077Z,17.30
2019-04-16T12:54:25.609Z,16.50
2019-04-16T12:57:04.827Z,17.40
2019-04-16T12:59:54.772Z,17.90
2019-04-16T13:02:22.809Z,17.70
2019-04-16T13:04:58.957Z,17.50
2019-04-16T13:07:34.632Z,17.80
2019-04-16T13:10:05.115Z,17.30
2019-04-16T13:12:35.197Z,16.70
2019-04-16T13:15:08.896Z,17.30
2019-04-16T13:17:55.381Z,17.10
2019-04-16T13:20:42.458Z,17.30
2019-04-16T13:23:12.576Z,17.10
2019-04-16T13:25:42.657Z,16.90
2019-04-16T13:28:11.105Z,16.50
2019-04-16T13:30:39.571Z,16.90
2019-04-16T13:33:08.018Z,16.70
2019-04-16T13:35:36.457Z,16.80
2019-04-16T13:38:08.177Z,16.70
2019-04-16T13:40:35.391Z,15.70
2019-04-16T13:43:05.603Z,15.60
2019-04-16T13:45:35.667Z,15.20
2019-04-16T13:48:15.726Z,14.90
2019-04-16T13:50:40.514Z,14.80
2019-04-16T13:53:13.662Z,14.80
2019-04-16T13:55:49.416Z,13.90
2019-04-16T13:58:35.896Z,14.50
2019-04-16T14:01:10.509Z,14.80
2019-04-16T14:03:39.245Z,15.00
2019-04-16T14:06:10.693Z,15.40
2019-04-16T14:08:37.885Z,15.40
2019-04-16T14:11:06.694Z,15.80
2019-04-16T14:13:35.152Z,16.00
2019-04-16T14:16:04.649Z,15.40
2019-04-16T14:18:33.408Z,15.30
2019-04-16T14:21:01.510Z,15.70
2019-04-16T14:23:30.072Z,15.90
2019-04-16T14:25:58.643Z,14.60
2019-04-16T14:28:27.169Z,14.30
2019-04-16T14:30:55.631Z,14.80
2019-04-16T14:33:25.865Z,15.00
2019-04-16T14:35:54.306Z,14.90
2019-04-16T14:38:39.465Z,14.60
2019-04-16T14:41:11.920Z,15.70
2019-04-16T14:43:52.601Z,14.90
2019-04-16T14:46:21.047Z,14.90
2019-04-16T14:48:49.488Z,14.70
2019-04-16T14:51:18.032Z,15.30
2019-04-16T14:53:51.178Z,14.80
2019-04-16T14:56:26.003Z,15.40
2019-04-16T14:58:59.098Z,15.10
2019-04-16T15:01:29.185Z,15.40
2019-04-16T15:04:01.770Z,16.50
2019-04-16T15:06:49.110Z,16.00
2019-04-16T15:09:19.844Z,16.40
2019-04-16T15:11:52.690Z,16.30
2019-04-16T15:14:26.140Z,15.80
2019-04-16T15:16:56.920Z,16.10
2019-04-16T15:19:27.014Z,15.90
2019-04-16T15:22:14.607Z,16.30
2019-04-16T15:25:00.273Z,16.40
2019-04-16T15:27:33.069Z,16.80
2019-04-16T15:30:05.962Z,17.20
2019-04-16T15:32:42.187Z,17.80
2019-04-16T15:35:21.256Z,17.90
2019-04-16T15:37:51.453Z,18.00
2019-04-16T15:40:30.660Z,17.90
2019-04-16T15:43:19.082Z,18.10
2019-04-16T15:46:07.123Z,18.00
2019-04-16T15:48:31.904Z,19.40
2019-04-16T15:51:20.086Z,19.70
2019-04-16T15:53:53.098Z,19.70
2019-04-16T15:56:35.345Z,20.10
2019-04-16T15:59:14.407Z,20.90
2019-04-16T16:02:01.436Z,21.20
2019-04-16T16:04:31.654Z,22.10
2019-04-16T16:07:01.757Z,21.90
2019-04-16T16:09:31.982Z,21.80
2019-04-16T16:12:11.258Z,21.70
2019-04-16T16:14:39.781Z,21.80
2019-04-16T16:17:08.225Z,21.20
2019-04-16T16:19:36.755Z,21.60
2019-04-16T16:22:05.188Z,21.40
2019-04-16T16:24:35.922Z,22.10
2019-04-16T16:27:04.222Z,22.30
2019-04-16T16:29:32.777Z,22.70
2019-04-16T16:32:20.653Z,23.00
2019-04-16T16:34:49.097Z,23.00
2019-04-16T16:37:17.543Z,23.60
2019-04-16T16:40:06.184Z,24.50
2019-04-16T16:42:34.627Z,26.50
2019-04-16T16:45:03.489Z,26.10
2019-04-16T16:47:34.686Z,26.50
2019-04-16T16:50:03.817Z,27.00
2019-04-16T16:52:52.334Z,27.50
2019-04-16T16:55:22.483Z,27.90
2019-04-16T16:58:01.605Z,28.00
2019-04-16T17:00:44.129Z,28.50
2019-04-16T17:03:19.997Z,28.60
2019-04-16T17:05:48.681Z,29.00
2019-04-16T17:08:17.191Z,29.30
2019-04-16T17:10:45.673Z,29.60
2019-04-16T17:13:17.034Z,29.70
2019-04-16T17:15:44.371Z,29.70
2019-04-16T17:18:12.853Z,29.70
2019-04-16T17:20:42.084Z,29.60
2019-04-16T17:23:10.630Z,29.90
2019-04-16T17:25:39.490Z,30.00
2019-04-16T17:28:08.165Z,30.30
2019-04-16T17:30:37.239Z,30.50
2019-04-16T17:33:05.773Z,30.80
2019-04-16T17:35:35.065Z,31.00
2019-04-16T17:38:03.905Z,31.10
2019-04-16T17:40:37.165Z,31.40
2019-04-16T17:43:13.840Z,31.50
2019-04-16T17:45:43.428Z,31.70
2019-04-16T17:48:30.304Z,31.90
2019-04-16T17:51:00.558Z,32.10
2019-04-16T17:53:36.483Z,32.50
2019-04-16T17:56:18.945Z,32.60
2019-04-16T17:59:01.396Z,32.90
2019-04-16T18:01:40.386Z,32.70
2019-04-16T18:04:24.015Z,32.80
2019-04-16T18:07:10.911Z,33.00
2019-04-16T18:09:47.119Z,33.00
2019-04-16T18:12:26.257Z,33.20
2019-04-16T18:15:11.389Z,33.50
2019-04-16T18:17:47.742Z,33.60
2019-04-16T18:20:23.907Z,34.00
2019-04-16T18:23:10.387Z,34.00
2019-04-16T18:25:55.135Z,34.20
2019-04-16T18:28:15.626Z,34.40
2019-04-16T18:30:56.140Z,34.50
2019-04-16T18:33:35.198Z,34.50
2019-04-16T18:36:06.922Z,34.60
2019-04-16T18:38:42.664Z,34.70
2019-04-16T18:41:30.694Z,35.10
2019-04-16T18:44:18.897Z,35.10
2019-04-16T18:46:53.225Z,35.40
2019-04-16T18:49:24.036Z,35.60
2019-04-16T18:51:52.513Z,35.60
2019-04-16T18:54:20.969Z,36.00
2019-04-16T18:56:52.337Z,36.10
2019-04-16T18:59:20.974Z,36.40
2019-04-16T19:01:51.075Z,36.70
2019-04-16T19:04:21.156Z,37.20
2019-04-16T19:06:49.668Z,37.60
2019-04-16T19:09:20.755Z,38.00
2019-04-16T19:11:48.545Z,38.50
2019-04-16T19:14:16.993Z,39.30
2019-04-16T19:16:45.585Z,38.80
2019-04-16T19:19:14.227Z,39.10
2019-04-16T19:21:42.891Z,39.20
2019-04-16T19:24:11.528Z,39.40
2019-04-16T19:26:40.056Z,39.50
2019-04-16T19:29:13.142Z,39.90
2019-04-16T19:31:38.765Z,40.00
2019-04-16T19:34:10.202Z,40.30
2019-04-16T19:36:37.558Z,40.30
2019-04-16T19:39:10.270Z,40.50
2019-04-16T19:41:41.058Z,41.00
2019-04-16T19:44:08.299Z,41.70
2019-04-16T19:46:37.080Z,42.10
2019-04-16T19:49:07.393Z,43.00
2019-04-16T19:51:37.947Z,42.80
2019-04-16T19:54:06.358Z,44.20
2019-04-16T19:56:34.937Z,46.00
2019-04-16T19:59:03.967Z,48.00
2019-04-16T20:01:33.365Z,51.00
2019-04-16T20:04:02.187Z,53.50
2019-04-16T20:06:30.733Z,56.40
2019-04-16T20:09:00.978Z,59.90
2019-04-16T20:11:29.624Z,63.30
2019-04-16T20:14:01.469Z,65.20
2019-04-16T20:16:28.511Z,66.10
2019-04-16T20:18:57.571Z,66.60
2019-04-16T20:21:27.495Z,67.60
2019-04-16T20:23:56.915Z,68.60
2019-04-16T20:26:44.813Z,68.80
2019-04-16T20:29:14.990Z,71.30
2019-04-16T20:31:43.679Z,69.70
2019-04-16T20:34:12.534Z,70.40
2019-04-16T20:36:43.795Z,70.80
2019-04-16T20:39:12.679Z,71.10
2019-04-16T20:41:41.267Z,71.50
2019-04-16T20:44:09.813Z,71.70
2019-04-16T20:46:38.253Z,72.50
2019-04-16T20:49:10.509Z,74.30
2019-04-16T20:51:38.686Z,76.50
2019-04-16T20:54:12.235Z,77.10
2019-04-16T20:56:40.402Z,78.40
2019-04-16T20:59:08.321Z,79.60
2019-04-16T21:01:37.757Z,79.90
2019-04-16T21:04:07.510Z,80.80
2019-04-16T21:06:40.832Z,82.80
2019-04-16T21:09:07.372Z,84.40
2019-04-16T21:11:40.505Z,86.50
2019-04-16T21:14:05.981Z,87.80
2019-04-16T21:16:34.617Z,88.70
2019-04-16T21:19:03.177Z,90.00
2019-04-16T21:21:31.620Z,90.10
2019-04-16T21:24:00.069Z,90.20
2019-04-16T21:26:28.543Z,90.60
2019-04-16T21:29:03.030Z,90.60
2019-04-16T21:31:36.521Z,90.90
2019-04-16T21:34:09.542Z,90.90
2019-04-16T21:36:39.629Z,90.90
2019-04-16T21:39:10.130Z,91.10
2019-04-16T21:41:38.707Z,91.20
2019-04-16T21:44:11.932Z,91.40
2019-04-16T21:46:37.450Z,91.50
2019-04-16T21:49:08.600Z,91.50
2019-04-16T21:51:37.701Z,91.80
2019-04-16T21:54:06.428Z,91.90
2019-04-16T21:56:36.938Z,91.80
2019-04-16T21:59:05.989Z,92.00
2019-04-16T22:01:36.773Z,91.90
2019-04-16T22:04:07.285Z,91.80
2019-04-16T22:06:35.992Z,91.70
2019-04-16T22:09:06.256Z,91.70
2019-04-16T22:11:34.710Z,91.80
2019-04-16T22:14:04.026Z,91.80
2019-04-16T22:16:32.520Z,92.30
2019-04-16T22:19:00.968Z,92.00
2019-04-16T22:21:29.416Z,92.00
2019-04-16T22:23:57.894Z,92.00
2019-04-16T22:26:26.329Z,92.60
2019-04-16T22:28:54.773Z,92.00
2019-04-16T22:31:23.827Z,92.20
2019-04-16T22:33:53.368Z,92.10
2019-04-16T22:36:21.810Z,92.20
2019-04-16T22:38:51.936Z,92.00
2019-04-16T22:41:34.164Z,91.90
2019-04-16T22:44:22.704Z,91.70
2019-04-16T22:46:56.292Z,91.50
2019-04-16T22:49:24.795Z,91.70
2019-04-16T22:51:53.266Z,91.50
2019-04-16T22:54:21.730Z,91.70
2019-04-16T22:57:04.141Z,91.60
2019-04-16T22:59:32.598Z,91.50
2019-04-16T23:02:01.171Z,91.60
2019-04-16T23:04:29.688Z,91.60
2019-04-16T23:06:58.137Z,91.60
2019-04-16T23:09:28.442Z,91.70
2019-04-16T23:11:57.228Z,91.50
2019-04-16T23:14:25.749Z,91.60
2019-04-16T23:16:54.202Z,91.50
2019-04-16T23:19:22.688Z,91.70
2019-04-16T23:21:51.192Z,91.70
2019-04-16T23:24:23.050Z,91.70
2019-04-16T23:26:49.865Z,91.90
2019-04-16T23:29:18.304Z,92.00
2019-04-16T23:31:46.744Z,92.20
2019-04-16T23:34:15.208Z,92.40
2019-04-16T23:36:44.539Z,92.60
2019-04-16T23:39:13.828Z,92.60
2019-04-16T23:41:42.301Z,92.40
2019-04-16T23:44:18.402Z,92.40
2019-04-16T23:47:09.511Z,92.20
2019-04-16T23:49:42.445Z,92.30
2019-04-16T23:52:15.737Z,92.50
2019-04-16T23:55:00.665Z,92.30
2019-04-16T23:57:31.412Z,92.30
